Thulani Grobler

Chefscout - Bloemfontein Celtic
3 Dez 2028
Sonntag
Verarbeitung

Persönlichkeit

Anpassungsfähigkeit (6) Ehrgeiz (5) Kontroverse (2) Loyalität (17) Druck (9) Professionalität (19) Fairness (6) Temperament (15)

Profil

Trainerstil Demokratisch
Lizenz Kontinentale C
Entschlossenheit 10
Menschenführung 6
Motivation 5
Disziplin 10
Arbeitszufriedenheit
100%
Ermüdung
0%
Rolle Chefscout
Gehalt 32.5K p/W
Vertrag 14.03.2030

Leistung

Verhalten Gut
Trainingseffektivität
34%
Spielerentwicklung
20%
Verletzungsprävention
20%
Taktische Umsetzung
50%

Letzte Ereignisse

Nahm an einer Scouting-Besprechung teil jetzt
Nahm an einer Scouting-Besprechung teil jetzt
Nahm an einer Scouting-Besprechung teil 7T her
Nahm an einer Scouting-Besprechung teil 7T her
Empfahl ein Transferziel 7T her
Empfahl ein Transferziel 7T her
Empfahl ein Transferziel 14T her
Empfahl ein Transferziel 14T her

Aktuell beobachtet

138
Spieler Verein Status Fähigkeit Vertrauen Beobachtet Zuletzt beobachtet Letzte Stimme
Monty Batlhabane Polokwane City Aktiv 111 / 114 30% 1 / 1m 29.11.2028 -
Ronaldo Maarman University of Pretoria Aktiv 121 / 121 56% 2 / 2m 06.09.2028 -
Evidence Mokoena Platinum Stars Aktiv 64 / 69 30% 1 / 1m 06.09.2028 -
Risen Albert University of Pretoria Aktiv 115 / 115 42% 1 / 1m 06.09.2028 -
Luciano Servín Bidvest Wits Aktiv 95 / 99 79% 1 28.08.2028 Befürworten
Sifiso Mokotjo SuperSport United Aktiv 86 / 94 79% 1 14.08.2028 Befürworten
Ryan Graydon Salford City Aktiv 101 / 103 40% 2 31.05.2028 -
Tyler Walton Bromley Aktiv 93 / 103 40% 1 31.05.2028 -
Brandon Thomas-Asante Blackpool Aktiv 129 / 123 40% 4 31.01.2028 -
Rocco Vata Watford Aktiv 131 / 123 40% 2 18.01.2028 -
Daniel Barrea Godoy Cruz Aktiv 118 / 126 40% 3 18.01.2028 -
Marco Miori Alvarado Aktiv 116 / 116 40% 2 18.01.2028 -
Aaron Collins Milton Keynes Dons Aktiv 123 / 114 40% 2 31.12.2027 -
Samuel Anakwe Remo Stars Aktiv 102 / 96 40% 6 31.12.2027 -
Ronaldo Peña Deportivo Lara Aktiv 106 / 95 40% 1 31.12.2027 -
Jay Stansfield Birmingham Aktiv 138 / 123 40% 3 30.12.2027 -
Auwalu Ali Malam Kano Pillars Aktiv 94 / 88 40% 2 30.12.2027 -
Yousef Salech Cardiff City Aktiv 131 / 123 40% 3 27.12.2027 -
Jonás Acevedo Instituto Aktiv 131 / 125 40% 2 26.12.2027 -
Juan Mendoza Güemes Aktiv 102 / 99 40% 3 26.12.2027 -
Sagir Arce Saburtalo Aktiv 104 / 102 40% 4 25.12.2027 -
Richard Koné Queens Park Rangers Aktiv 124 / 139 40% 3 25.12.2027 -
Umar Ada Nasarawa United Aktiv 92 / 91 40% 4 25.12.2027 -
Josephat Lopaga Kakamega Homeboyz Aktiv 88 / 96 40% 8 24.12.2027 -
Gianluca Pugliese Güemes Aktiv 117 / 100 40% 2 23.12.2027 -
Lisandro Cabrera Maipú Aktiv 104 / 123 40% 3 23.12.2027 -
Timothy Zechariah Rivers United Aktiv 104 / 104 40% 3 23.12.2027 -
Luca Franco Arsenal Aktiv 106 / 118 40% 4 20.12.2027 -
Ismail Sarki Niger Tornadoes Aktiv 102 / 101 40% 3 20.12.2027 -
Maclyn Biokpo Jenewari Rivers United Aktiv 101 / 101 40% 5 17.12.2027 -
César Magallan Estudiantes de Merida Aktiv 120 / 112 40% 2 14.12.2027 -
Chisom Orji Warri Wolves Aktiv 90 / 87 40% 7 14.12.2027 -
Matías Samaniego Talleres Aktiv 110 / 98 40% 1 14.12.2027 -
Rodrigo Bogarín Barracas Central Aktiv 114 / 122 40% 1 12.12.2027 -
Samson Olasupo Remo Stars Aktiv 104 / 105 40% 4 11.12.2027 -
Alejandro Rincon Llaneros Aktiv 101 / 94 40% 4 10.12.2027 -
Chukwuemeka Obioma Abia Warriors Aktiv 100 / 95 40% 4 10.12.2027 -
William Osula Wrexham Aktiv 135 / 133 40% 2 09.12.2027 -
Juan David Rueda Alianza Petrolera Aktiv 100 / 108 40% 2 08.12.2027 -
Stanley Amon Bayelsa United Aktiv 83 / 103 40% 8 08.12.2027 -
Favio Cabral Mitre Aktiv 110 / 122 40% 7 06.12.2027 -
Germán Cervera Alvarado Aktiv 94 / 101 40% 2 06.12.2027 -
Facundo Krüger Temperley Aktiv 120 / 104 40% 3 05.12.2027 -
Shuaibu Ibrahim Wikki Tourists Aktiv 96 / 86 40% 3 05.12.2027 -
José Balza Deportivo Tachira Aktiv 108 / 97 40% 1 05.12.2027 -
Augustine Nwaorisa Enyimba Aktiv 91 / 93 40% 3 04.12.2027 -
Enzo González Defensores Aktiv 117 / 101 40% 1 03.12.2027 -
Ibrahim Yahaya Barau Aktiv 82 / 84 40% 3 02.12.2027 -
Okardi Inikurogha Bayelsa United Aktiv 94 / 81 40% 3 02.12.2027 -
Lautaro Gordillo Colegiales Aktiv 102 / 114 40% 2 28.11.2027 -
José Barreto Quilmes Aktiv 106 / 106 40% 1 28.11.2027 -
Santiago Sala Güemes Aktiv 110 / 119 40% 3 25.11.2027 -
Augusto Berrondo Tristán Suárez Aktiv 107 / 116 40% 3 19.11.2027 -
Sebastián Cocimano Nueva Chicago Aktiv 114 / 118 40% 3 17.11.2027 -
Adalberto Peñaranda Deportivo Tachira Aktiv 122 / 118 40% 2 14.11.2027 -
Santiago Rodríguez Gimnasia y Esgrima Aktiv 116 / 117 40% 2 13.11.2027 -
James Emo Rangers International Aktiv 81 / 91 40% 1 08.11.2027 -
Abubakar Garba Nasarawa United Aktiv 87 / 101 40% 2 05.11.2027 -
Chineme Chinonso Ikorodu City Aktiv 99 / 88 40% 3 04.11.2027 -
Maren Kefas Plateau United Aktiv 104 / 101 40% 2 03.11.2027 -
Waheed Adebayo Rangers International Aktiv 85 / 90 40% 2 02.11.2027 -
Kingsley Maduforo Enyimba Aktiv 91 / 94 40% 3 25.10.2027 -
Mauricio Márquez Caracas Aktiv 116 / 109 40% 2 25.10.2027 -
Sergio Riffo Kolkheti Aktiv 90 / 96 40% 1 23.10.2027 -
Renzo Reynaga Patronato Aktiv 106 / 110 40% 1 23.10.2027 -
Tomás Fernández Aldosivi Aktiv 125 / 119 40% 1 22.10.2027 -
Alexander Díaz Deportivo Riestra Aktiv 126 / 126 40% 1 20.10.2027 -
Oke Kayode Bendel Insurance Aktiv 83 / 100 40% 1 06.10.2027 -
Prince Nxumalo Aktiv 103 / 103 52% 1 / 1m 08.09.2027 -
Aidomo Emakhu Oxford United Aktiv 136 / 118 40% 2 06.08.2027 -
Sam Bell Bristol City Aktiv 123 / 125 40% 3 06.08.2027 -
Matty Stevens AFC Wimbledon Aktiv 115 / 96 40% 4 05.08.2027 -
Elijah Adebayo Luton Town Aktiv 129 / 130 40% 2 05.08.2027 -
Josh Coburn Millwall Aktiv 125 / 116 40% 3 04.08.2027 -
Sam Nombe Milton Keynes Dons Aktiv 112 / 106 40% 3 03.08.2027 -
Stephen Humphrys Bradford City Aktiv 119 / 114 40% 3 03.08.2027 -
Marezi Portsmouth Aktiv 132 / 115 40% 2 26.07.2027 -
Sam Greenwood Bristol City Aktiv 127 / 117 40% 1 25.07.2027 -
Mees Rijks Bristol Rovers Aktiv 120 / 117 40% 1 24.07.2027 -
Brandon Hanlan Doncaster Rovers Aktiv 100 / 111 40% 3 23.07.2027 -
Christian Saydee Wigan Athletic Aktiv 122 / 116 40% 1 22.07.2027 -
Augustus Kargbo Blackburn Rovers Aktiv 111 / 119 40% 1 21.07.2027 -
Aaron Drinan Swindon Town Aktiv 116 / 93 40% 1 21.07.2027 -
Lorent Tolaj Plymouth Argyle Aktiv 130 / 122 40% 1 20.07.2027 -
Fábio Tavares Burton Albion Aktiv 102 / 111 40% 2 06.07.2027 -
Tyreece Campbell Charlton Athletic Aktiv 122 / 125 40% 1 28.06.2027 -
Hlompho Mkhize Black Aces Aktiv 97 / 106 40% 2 31.12.2026 -
Ryder Matos Hibernians Aktiv 97 / 85 40% 5 29.12.2026 -
Gbolahan Salami Aktiv 86 / 97 40% 2 29.12.2026 -
Damir Céter Hamrun Spartans Aktiv 105 / 96 40% 2 22.12.2026 -
Evidence Makgopa Orlando Pirates Aktiv 108 / 117 40% 4 17.12.2026 -
Robert Murić Floriana Aktiv 103 / 98 40% 2 16.12.2026 -
Jurgen Degabriele Hibernians Aktiv 84 / 81 40% 1 16.12.2026 -
Mohamed Konaté Akhmat Grozny Aktiv 108 / 114 40% 2 14.12.2026 -
Denzel Jubitana Neftchi Aktiv 120 / 122 40% 2 14.12.2026 -
Patrick Schmidt Tarxien Rainbows Aktiv 92 / 95 40% 2 11.12.2026 -
Fernandinho Sliema Wanderers Aktiv 95 / 86 40% 1 08.12.2026 -
Kagiso Malinga Jomo Cosmos Aktiv 100 / 95 40% 1 07.12.2026 -
Matej Poplatnik Aktiv 106 / 100 40% 3 03.12.2026 -
Etiosa Ighodaro Kaizer Chiefs Aktiv 117 / 111 40% 2 02.12.2026 -
Franklin Sasere Birkirkara Aktiv 87 / 103 40% 2 30.11.2026 -
Brayan Gil Baltika Aktiv 128 / 109 40% 1 29.11.2026 -
Uroš Đuranović Sliema Wanderers Aktiv 103 / 89 40% 3 25.11.2026 -
Miloš Jovičić Zabbar St. Patrick Aktiv 100 / 99 40% 1 20.11.2026 -
Ioannis Pittas CSKA Sofia Aktiv 122 / 118 40% 1 19.11.2026 -
Tio Cipot NK Maribor Aktiv 123 / 126 40% 1 15.11.2026 -
Daniel Udoh Salford City Aktiv 92 / 93 40% 2 13.11.2026 -
Bruno Gomes Valletta Aktiv 88 / 95 40% 2 13.11.2026 -
Armstrong Oko-Flex Levski Aktiv 116 / 123 40% 1 12.11.2026 -
Nikos Karelis Aktiv 107 / 103 40% 1 03.11.2026 -
Erick Dolly Black Aces Aktiv 104 / 111 40% 2 02.11.2026 Mehr Infos nötig
Isaac Matondo Koper Aktiv 107 / 108 40% 1 02.11.2026 -
Marcus Browne AFC Wimbledon Aktiv 100 / 92 40% 1 30.10.2026 -
Kekuta Manneh Samtredia Aktiv 82 / 83 40% 2 28.10.2026 -
Samuel Ayanrinde KCB Aktiv 91 / 86 40% 1 27.10.2026 -
Bongani Khune SuperSport United Aktiv 127 / 130 40% 5 25.10.2026 -
Elliot Collier Saburtalo Aktiv 108 / 86 40% 2 25.10.2026 -
Peter Shalulile Mamelodi Sundowns Aktiv 129 / 138 40% 7 24.10.2026 -
Hakeeb Adelakun Doncaster Rovers Aktiv 101 / 109 40% 2 16.10.2026 -
Will Davies Fleetwood Town Aktiv 102 / 103 40% 2 15.10.2026 -
Alassana Jatta Notts County Aktiv 94 / 114 40% 1 15.10.2026 -
Hansel Ochieng APS Bomet Aktiv 73 / 76 40% 1 07.10.2026 -
Paul Glatzel Swindon Town Aktiv 88 / 91 40% 2 05.10.2026 -
Tyshick Mosengo Kenya Police Aktiv 88 / 74 40% 1 21.09.2026 -
Israel Emmanuel Hamrun Spartans Aktiv 82 / 91 40% 1 17.09.2026 -
Ramiro Ruiz Rodríguez Atlético Tucumán Aktiv 131 / 114 40% 1 16.09.2026 -
Will Dickson Chesterfield Aktiv 97 / 93 40% 1 16.09.2026 -
Paul Mbong Floriana Aktiv 100 / 84 40% 1 11.09.2026 -
Louie Marsh Sheffield United Aktiv 103 / 90 40% 1 09.09.2026 -
Enosh Ochieng Aktiv 83 / 86 40% 1 08.09.2026 -
Eric Kapaito Tusker Aktiv 91 / 89 40% 1 08.09.2026 -
Clinton Omondi Ulinzi Stars Aktiv 76 / 84 40% 1 07.09.2026 -
David Sakwa Bandari Aktiv 72 / 75 40% 1 07.09.2026 -
Lebo Mothiba Mamelodi Sundowns Aktiv 119 / 111 40% 1 07.09.2026 -
James Norwood Aktiv 68 / 91 40% 1 25.08.2026 -
Tomáš Souček West Ham United Aktiv 142 / 129 40% 1 01.08.2026 -
Dwight McNeil Crystal Palace Aktiv 140 / 149 40% 1 01.08.2026 -
Elliot Lee Wrexham Aktiv 101 / 121 40% 1 01.08.2026 -